Historyczne dane pomiarowe

Dodano dane terminowe – wersja testowa.

Dane z okresu 1951-2019

Wersja bazy: 1.34 [2019-03-16, lista zmian], aktualizacja planowana na 2019-04-15

Dane meteo z obszaru Polski uzyskane na podstawie danych udostępnionych przez Instytut Meteorologii i Gospodarki Wodnej – Państwowy Instytut Badawczy.

 

Wybierz Datę:    

       

TemperaturaWilgotnośćWiatrCiśnienieOpadyŚniegCzas trwania zjawisk
 Stacja t tx tn tng RH VA  wxwx mslp ppp RRR   cm mm wxwxwxwxwxwxwx
2019-07-25 21.3 29.1 11.9--- 1.0 1.7---- 0.0------------
2019-07-24 18.1 24.4 11.3--- 3.3 1.3---- 0.0------------
2019-07-23 19.0 22.7 15.0--- 6.3 2.0---- 0.0------------
2019-07-22 21.0 26.6 16.7--- 6.3 2.7---- 0.0------------
2019-07-21 20.9 29.4 14.4--- 5.7 2.3---- 4.6------------
2019-07-20 21.1 27.8 14.3--- 4.0 1.7---- 0.0------------
2019-07-19 19.5 28.3 8.4--- 4.0 1.3---- 0.4------------
2019-07-18 15.9 22.8 5.3--- 3.3 1.0---- 0.0------------
2019-07-17 16.1 20.6 11.2--- 8.0 3.0---- 0.5------------
2019-07-16 15.1 21.8 5.0--- 2.7 3.7---- 0.0------------
2019-07-15 14.9 23.6 5.2--- 4.0 1.3---- 0.0------------
2019-07-14 16.9 21.5 13.2--- 2.3 2.0---- 0.3------------
2019-07-13 16.7 24.8 10.5--- 6.3 2.3---- 8.2------------
2019-07-12 16.4 24.2 6.7--- 4.7 1.3---- 0.0------------
2019-07-11 14.6 19.2 9.0--- 4.0 2.3---- 0.0------------
2019-07-10 14.4 18.0 11.8--- 8.0 3.0---- 5.9------------
2019-07-09 14.0 20.2 7.7--- 8.0 3.3---- 1.2------------
2019-07-08 14.5 19.6 7.6--- 8.0 5.0---- 0.0------------
2019-07-07 18.9 23.0 14.0--- 4.0 2.3---- 0.0------------
2019-07-06 18.0 25.1 8.7--- 5.7 2.3---- 0.0------------
2019-07-05 15.8 22.4 6.0--- 8.0 2.3---- 0.0------------
2019-07-04 15.7 22.7 5.0--- 2.3 2.0---- 0.0------------
2019-07-03 16.6 23.4 7.5--- 1.3 1.7---- 0.0------------
2019-07-02 23.4 30.0 18.7--- 4.0 3.7---- 0.0------------
2019-07-01 27.1 36.2 17.5--- 3.3 3.7---- 1.1------------
2019-06-30 22.9 32.4 9.7--- 2.3 2.0---- 0.0------------
2019-06-29 18.6 25.6 7.4--- 3.3 3.0---- 0.0------------
2019-06-28 18.4 23.1 13.7--- 1.0 4.0---- 0.0------------
2019-06-27 25.1 30.4 22.2--- 2.7 5.7---- 0.0------------
2019-06-26 25.8 33.6 16.4--- 1.3 2.0---- 0.0------------
2019-06-25 23.5 30.0 13.5--- 1.7 1.7---- 0.0------------
2019-06-24 21.0 25.6 12.7--- 1.7 1.7---- 0.0------------
2019-06-23 21.5 26.5 16.5--- 4.0 2.7---- 0.0------------
2019-06-22 20.5 25.1 15.5--- 4.0 2.3---- 0.0------------
2019-06-21 20.8 28.6 15.9--- 5.7 2.0---- 24.5------------
2019-06-20 22.8 28.4 16.8--- 4.0 2.0---- 0.1------------
2019-06-19 22.0 27.7 16.0--- 4.0 2.3---- 0.0------------
2019-06-18 20.5 26.1 13.4--- 5.7 1.0---- 0.0------------
2019-06-17 20.6 24.7 18.0--- 5.7 1.3---- 0.0------------
2019-06-16 24.5 31.8 18.0--- 3.3 3.3---- 0.6------------
2019-06-15 26.2 33.5 17.5--- 1.0 1.7---- 0.0------------
2019-06-14 24.8 30.6 17.5--- 2.0 2.0---- 0.0------------
2019-06-13 25.5 32.2 17.6--- 2.0 2.3---- 0.0------------
2019-06-12 24.8 32.0 16.8--- 1.0 2.3---- 0.0------------
2019-06-11 25.0 31.5 18.0--- 1.0 2.7---- 0.0------------
2019-06-10 22.8 29.6 13.2--- 1.7 3.3---- 0.0------------
2019-06-09 20.6 26.6 14.4--- 3.0 2.0---- 0.0------------
2019-06-08 22.5 29.6 14.7--- 4.0 1.0---- 0.3------------
2019-06-07 20.2 26.0 13.5--- 2.0 1.0---- 0.2------------
2019-06-06 20.3 26.6 14.9--- 2.3 2.0---- 6.7------------
2019-06-05 20.9 26.6 13.2--- 2.0 2.3---- 0.0------------
2019-06-04 21.4 27.2 11.5--- 2.3 2.3---- 0.0------------
2019-06-03 20.5 27.4 9.7--- 1.3 2.0---- 0.0------------
2019-06-02 19.0 26.4 8.4--- 1.0 1.7---- 0.0------------
2019-06-01 16.8 23.6 6.4--- 1.7 1.7---- 0.0------------
2019-05-31 17.0 22.2 12.4--- 3.3 1.3---- 0.0------------
2019-05-30 13.6 16.8 11.2--- 6.3 2.3---- 0.2------------
2019-05-29 15.4 19.8 11.9--- 8.0 3.3---- 0.0------------
2019-05-28 19.8 24.4 15.7--- 4.7 3.7---- 0.0------------
2019-05-27 18.8 26.2 10.3--- 1.7 2.0---- 2.0------------
84.0 ms

 

Źródłem pochodzenia danych jest Instytut Meteorologii i Gospodarki Wodnej – Państwowy Instytut Badawczy. Dane Instytutu Meteorologii i Gospodarki Wodnej – Państwowego Instytutu Badawczego zostały przetworzone.

Dane źródłowe można odnaleźć na stronie https://dane.imgw.pl